sensor_id;sensor_type;location;lat;lon;timestamp;P1;durP1;ratioP1;P2;durP2;ratioP2
37535;SDS011;23379;51.554;6.736;2024-01-11T00:02:11;47.60;;;19.80;;
37535;SDS011;23379;51.554;6.736;2024-01-11T00:04:37;44.90;;;18.95;;
37535;SDS011;23379;51.554;6.736;2024-01-11T00:07:02;45.95;;;19.20;;
37535;SDS011;23379;51.554;6.736;2024-01-11T00:09:27;43.72;;;19.20;;
37535;SDS011;23379;51.554;6.736;2024-01-11T00:11:53;51.55;;;19.48;;
37535;SDS011;23379;51.554;6.736;2024-01-11T00:14:18;50.13;;;20.00;;
37535;SDS011;23379;51.554;6.736;2024-01-11T00:16:43;49.60;;;21.02;;
37535;SDS011;23379;51.554;6.736;2024-01-11T00:19:09;51.30;;;20.95;;
37535;SDS011;23379;51.554;6.736;2024-01-11T00:21:34;45.05;;;19.40;;
37535;SDS011;23379;51.554;6.736;2024-01-11T00:24:00;46.47;;;20.00;;
37535;SDS011;23379;51.554;6.736;2024-01-11T00:26:25;45.20;;;19.30;;
37535;SDS011;23379;51.554;6.736;2024-01-11T00:28:50;41.08;;;19.33;;
37535;SDS011;23379;51.554;6.736;2024-01-11T00:31:16;47.70;;;19.80;;
37535;SDS011;23379;51.554;6.736;2024-01-11T00:33:41;47.28;;;20.35;;
37535;SDS011;23379;51.554;6.736;2024-01-11T00:36:06;46.97;;;20.25;;
37535;SDS011;23379;51.554;6.736;2024-01-11T00:38:32;39.58;;;17.13;;
37535;SDS011;23379;51.554;6.736;2024-01-11T00:40:57;38.95;;;18.95;;
37535;SDS011;23379;51.554;6.736;2024-01-11T00:43:22;48.40;;;20.50;;
37535;SDS011;23379;51.554;6.736;2024-01-11T00:45:48;46.63;;;19.80;;
37535;SDS011;23379;51.554;6.736;2024-01-11T00:48:13;51.35;;;20.95;;
37535;SDS011;23379;51.554;6.736;2024-01-11T00:50:38;50.85;;;20.98;;
37535;SDS011;23379;51.554;6.736;2024-01-11T00:53:04;51.63;;;21.63;;
37535;SDS011;23379;51.554;6.736;2024-01-11T00:55:29;51.10;;;20.27;;
37535;SDS011;23379;51.554;6.736;2024-01-11T00:57:55;46.70;;;18.95;;
37535;SDS011;23379;51.554;6.736;2024-01-11T01:00:20;44.60;;;20.27;;
37535;SDS011;23379;51.554;6.736;2024-01-11T01:02:45;51.40;;;22.58;;
37535;SDS011;23379;51.554;6.736;2024-01-11T01:05:11;45.15;;;19.85;;
37535;SDS011;23379;51.554;6.736;2024-01-11T01:07:36;45.50;;;20.48;;
37535;SDS011;23379;51.554;6.736;2024-01-11T01:10:02;48.88;;;19.80;;
37535;SDS011;23379;51.554;6.736;2024-01-11T01:12:27;45.60;;;19.52;;
37535;SDS011;23379;51.554;6.736;2024-01-11T01:14:53;44.67;;;19.95;;
37535;SDS011;23379;51.554;6.736;2024-01-11T01:17:20;43.60;;;19.70;;
37535;SDS011;23379;51.554;6.736;2024-01-11T01:19:46;47.75;;;21.83;;
37535;SDS011;23379;51.554;6.736;2024-01-11T01:22:12;52.25;;;22.33;;
37535;SDS011;23379;51.554;6.736;2024-01-11T01:24:37;45.10;;;20.52;;
37535;SDS011;23379;51.554;6.736;2024-01-11T01:27:03;49.38;;;20.25;;
37535;SDS011;23379;51.554;6.736;2024-01-11T01:29:28;46.72;;;19.27;;
37535;SDS011;23379;51.554;6.736;2024-01-11T01:31:53;49.95;;;19.98;;
37535;SDS011;23379;51.554;6.736;2024-01-11T01:34:19;54.55;;;20.45;;
37535;SDS011;23379;51.554;6.736;2024-01-11T01:36:44;45.92;;;18.95;;
37535;SDS011;23379;51.554;6.736;2024-01-11T01:39:10;42.55;;;19.55;;
37535;SDS011;23379;51.554;6.736;2024-01-11T01:41:35;46.10;;;20.20;;
37535;SDS011;23379;51.554;6.736;2024-01-11T01:44:01;40.08;;;19.50;;
37535;SDS011;23379;51.554;6.736;2024-01-11T01:46:26;42.75;;;18.90;;
37535;SDS011;23379;51.554;6.736;2024-01-11T01:48:53;52.00;;;20.58;;
37535;SDS011;23379;51.554;6.736;2024-01-11T01:51:20;51.20;;;21.05;;
37535;SDS011;23379;51.554;6.736;2024-01-11T01:53:47;45.75;;;18.95;;
37535;SDS011;23379;51.554;6.736;2024-01-11T01:56:15;52.38;;;20.27;;
37535;SDS011;23379;51.554;6.736;2024-01-11T01:58:42;48.13;;;21.52;;
37535;SDS011;23379;51.554;6.736;2024-01-11T02:01:08;49.40;;;19.02;;
37535;SDS011;23379;51.554;6.736;2024-01-11T02:03:33;47.50;;;19.85;;
37535;SDS011;23379;51.554;6.736;2024-01-11T02:06:00;52.45;;;20.20;;
37535;SDS011;23379;51.554;6.736;2024-01-11T02:08:27;43.38;;;19.08;;
37535;SDS011;23379;51.554;6.736;2024-01-11T02:10:53;45.17;;;19.58;;
37535;SDS011;23379;51.554;6.736;2024-01-11T02:13:19;48.28;;;18.92;;
37535;SDS011;23379;51.554;6.736;2024-01-11T02:15:45;47.08;;;19.90;;
37535;SDS011;23379;51.554;6.736;2024-01-11T02:18:10;43.58;;;19.27;;
37535;SDS011;23379;51.554;6.736;2024-01-11T02:20:36;47.00;;;20.42;;
37535;SDS011;23379;51.554;6.736;2024-01-11T02:23:03;47.28;;;19.33;;
37535;SDS011;23379;51.554;6.736;2024-01-11T02:25:31;44.70;;;18.05;;
37535;SDS011;23379;51.554;6.736;2024-01-11T02:27:56;48.58;;;18.98;;
37535;SDS011;23379;51.554;6.736;2024-01-11T02:30:22;42.85;;;18.27;;
37535;SDS011;23379;51.554;6.736;2024-01-11T02:32:48;42.63;;;19.00;;
37535;SDS011;23379;51.554;6.736;2024-01-11T02:35:15;49.80;;;21.30;;
37535;SDS011;23379;51.554;6.736;2024-01-11T02:37:41;46.70;;;19.77;;
37535;SDS011;23379;51.554;6.736;2024-01-11T02:40:07;41.72;;;20.08;;
37535;SDS011;23379;51.554;6.736;2024-01-11T02:42:34;49.13;;;20.70;;
37535;SDS011;23379;51.554;6.736;2024-01-11T02:45:00;52.97;;;21.25;;
37535;SDS011;23379;51.554;6.736;2024-01-11T02:47:25;40.20;;;18.10;;
37535;SDS011;23379;51.554;6.736;2024-01-11T02:49:51;46.90;;;21.38;;
37535;SDS011;23379;51.554;6.736;2024-01-11T02:52:16;45.10;;;19.92;;
37535;SDS011;23379;51.554;6.736;2024-01-11T02:54:42;49.05;;;21.15;;
37535;SDS011;23379;51.554;6.736;2024-01-11T02:57:10;40.67;;;19.20;;
37535;SDS011;23379;51.554;6.736;2024-01-11T02:59:36;41.78;;;19.15;;
37535;SDS011;23379;51.554;6.736;2024-01-11T03:02:01;42.05;;;18.33;;
37535;SDS011;23379;51.554;6.736;2024-01-11T03:04:27;44.28;;;19.90;;
37535;SDS011;23379;51.554;6.736;2024-01-11T03:06:52;43.22;;;19.98;;
37535;SDS011;23379;51.554;6.736;2024-01-11T03:09:17;45.75;;;19.70;;
37535;SDS011;23379;51.554;6.736;2024-01-11T03:11:43;39.17;;;18.80;;
37535;SDS011;23379;51.554;6.736;2024-01-11T03:14:08;44.15;;;18.58;;
37535;SDS011;23379;51.554;6.736;2024-01-11T03:16:33;41.50;;;19.10;;
37535;SDS011;23379;51.554;6.736;2024-01-11T03:18:59;47.35;;;20.38;;
37535;SDS011;23379;51.554;6.736;2024-01-11T03:21:25;44.20;;;18.95;;
37535;SDS011;23379;51.554;6.736;2024-01-11T03:23:50;42.42;;;19.00;;
37535;SDS011;23379;51.554;6.736;2024-01-11T03:26:16;42.55;;;19.83;;
37535;SDS011;23379;51.554;6.736;2024-01-11T03:28:42;40.83;;;18.45;;
37535;SDS011;23379;51.554;6.736;2024-01-11T03:31:10;47.72;;;19.80;;
37535;SDS011;23379;51.554;6.736;2024-01-11T03:33:35;41.00;;;18.92;;
37535;SDS011;23379;51.554;6.736;2024-01-11T03:36:07;51.35;;;20.25;;
37535;SDS011;23379;51.554;6.736;2024-01-11T03:38:34;51.38;;;21.10;;
37535;SDS011;23379;51.554;6.736;2024-01-11T03:40:59;46.58;;;18.98;;
37535;SDS011;23379;51.554;6.736;2024-01-11T03:43:25;45.95;;;20.02;;
37535;SDS011;23379;51.554;6.736;2024-01-11T03:45:50;41.25;;;18.25;;
37535;SDS011;23379;51.554;6.736;2024-01-11T03:48:15;49.28;;;21.00;;
37535;SDS011;23379;51.554;6.736;2024-01-11T03:50:41;53.00;;;20.50;;
37535;SDS011;23379;51.554;6.736;2024-01-11T03:53:06;47.40;;;19.67;;
37535;SDS011;23379;51.554;6.736;2024-01-11T03:55:33;57.00;;;20.17;;
37535;SDS011;23379;51.554;6.736;2024-01-11T03:57:58;53.42;;;20.83;;
37535;SDS011;23379;51.554;6.736;2024-01-11T04:00:23;45.63;;;19.63;;
37535;SDS011;23379;51.554;6.736;2024-01-11T04:02:49;48.30;;;21.15;;
37535;SDS011;23379;51.554;6.736;2024-01-11T04:05:14;49.08;;;20.75;;
37535;SDS011;23379;51.554;6.736;2024-01-11T04:07:40;56.28;;;21.65;;
37535;SDS011;23379;51.554;6.736;2024-01-11T04:10:06;62.67;;;23.02;;
37535;SDS011;23379;51.554;6.736;2024-01-11T04:12:34;62.95;;;22.33;;
37535;SDS011;23379;51.554;6.736;2024-01-11T04:15:01;48.92;;;20.92;;
37535;SDS011;23379;51.554;6.736;2024-01-11T04:17:27;61.33;;;24.77;;
37535;SDS011;23379;51.554;6.736;2024-01-11T04:19:52;46.88;;;21.33;;
37535;SDS011;23379;51.554;6.736;2024-01-11T04:22:18;50.65;;;20.50;;
37535;SDS011;23379;51.554;6.736;2024-01-11T04:24:43;45.63;;;19.90;;
37535;SDS011;23379;51.554;6.736;2024-01-11T04:27:09;57.10;;;22.23;;
37535;SDS011;23379;51.554;6.736;2024-01-11T04:29:34;48.60;;;19.83;;
37535;SDS011;23379;51.554;6.736;2024-01-11T04:31:59;59.45;;;25.50;;
37535;SDS011;23379;51.554;6.736;2024-01-11T04:34:25;59.47;;;23.55;;
37535;SDS011;23379;51.554;6.736;2024-01-11T04:36:50;56.00;;;22.58;;
37535;SDS011;23379;51.554;6.736;2024-01-11T04:39:15;56.40;;;22.30;;
37535;SDS011;23379;51.554;6.736;2024-01-11T04:41:41;54.78;;;24.33;;
37535;SDS011;23379;51.554;6.736;2024-01-11T04:44:06;48.25;;;22.17;;
37535;SDS011;23379;51.554;6.736;2024-01-11T04:46:32;47.67;;;19.63;;
37535;SDS011;23379;51.554;6.736;2024-01-11T04:48:57;47.55;;;19.55;;
37535;SDS011;23379;51.554;6.736;2024-01-11T04:51:22;42.28;;;19.30;;
37535;SDS011;23379;51.554;6.736;2024-01-11T04:53:48;52.90;;;21.30;;
37535;SDS011;23379;51.554;6.736;2024-01-11T04:56:14;46.45;;;19.67;;
37535;SDS011;23379;51.554;6.736;2024-01-11T04:58:41;66.88;;;25.58;;
37535;SDS011;23379;51.554;6.736;2024-01-11T05:01:11;90.53;;;32.20;;
37535;SDS011;23379;51.554;6.736;2024-01-11T05:03:37;70.93;;;28.27;;
37535;SDS011;23379;51.554;6.736;2024-01-11T05:06:02;126.40;;;41.92;;
37535;SDS011;23379;51.554;6.736;2024-01-11T05:08:28;151.95;;;56.38;;
37535;SDS011;23379;51.554;6.736;2024-01-11T05:10:54;61.30;;;24.50;;
37535;SDS011;23379;51.554;6.736;2024-01-11T05:13:19;44.92;;;22.13;;
37535;SDS011;23379;51.554;6.736;2024-01-11T05:15:45;51.65;;;22.13;;
37535;SDS011;23379;51.554;6.736;2024-01-11T05:18:10;47.17;;;20.05;;
37535;SDS011;23379;51.554;6.736;2024-01-11T05:20:36;47.13;;;19.83;;
37535;SDS011;23379;51.554;6.736;2024-01-11T05:23:02;50.75;;;19.83;;
37535;SDS011;23379;51.554;6.736;2024-01-11T05:25:29;41.13;;;18.73;;
37535;SDS011;23379;51.554;6.736;2024-01-11T05:27:58;42.85;;;16.73;;
37535;SDS011;23379;51.554;6.736;2024-01-11T05:30:27;42.08;;;18.88;;
37535;SDS011;23379;51.554;6.736;2024-01-11T05:32:55;48.17;;;18.63;;
37535;SDS011;23379;51.554;6.736;2024-01-11T05:35:21;41.50;;;19.25;;
37535;SDS011;23379;51.554;6.736;2024-01-11T05:37:49;46.05;;;20.75;;
37535;SDS011;23379;51.554;6.736;2024-01-11T05:40:14;45.03;;;19.90;;
37535;SDS011;23379;51.554;6.736;2024-01-11T05:42:40;47.53;;;20.52;;
37535;SDS011;23379;51.554;6.736;2024-01-11T05:45:05;57.28;;;22.25;;
37535;SDS011;23379;51.554;6.736;2024-01-11T05:47:31;53.83;;;21.55;;
37535;SDS011;23379;51.554;6.736;2024-01-11T05:49:56;45.30;;;20.90;;
37535;SDS011;23379;51.554;6.736;2024-01-11T05:52:22;44.42;;;19.38;;
37535;SDS011;23379;51.554;6.736;2024-01-11T05:54:47;44.15;;;19.77;;
37535;SDS011;23379;51.554;6.736;2024-01-11T05:57:12;45.30;;;19.23;;
37535;SDS011;23379;51.554;6.736;2024-01-11T05:59:43;52.85;;;20.02;;
37535;SDS011;23379;51.554;6.736;2024-01-11T06:02:10;42.72;;;20.15;;
37535;SDS011;23379;51.554;6.736;2024-01-11T06:04:36;47.25;;;19.58;;
37535;SDS011;23379;51.554;6.736;2024-01-11T06:07:01;45.40;;;20.15;;
37535;SDS011;23379;51.554;6.736;2024-01-11T06:09:27;47.30;;;20.35;;
37535;SDS011;23379;51.554;6.736;2024-01-11T06:11:52;52.53;;;21.88;;
37535;SDS011;23379;51.554;6.736;2024-01-11T06:14:17;60.70;;;22.92;;
37535;SDS011;23379;51.554;6.736;2024-01-11T06:16:43;61.40;;;21.48;;
37535;SDS011;23379;51.554;6.736;2024-01-11T06:19:08;46.28;;;18.02;;
37535;SDS011;23379;51.554;6.736;2024-01-11T06:21:34;43.17;;;19.67;;
37535;SDS011;23379;51.554;6.736;2024-01-11T06:23:59;51.92;;;20.10;;
37535;SDS011;23379;51.554;6.736;2024-01-11T06:26:25;41.47;;;18.65;;
37535;SDS011;23379;51.554;6.736;2024-01-11T06:28:50;57.08;;;23.88;;
37535;SDS011;23379;51.554;6.736;2024-01-11T06:31:15;63.58;;;24.45;;
37535;SDS011;23379;51.554;6.736;2024-01-11T06:33:45;56.80;;;23.52;;
37535;SDS011;23379;51.554;6.736;2024-01-11T06:36:11;54.60;;;22.02;;
37535;SDS011;23379;51.554;6.736;2024-01-11T06:38:36;54.47;;;22.52;;
37535;SDS011;23379;51.554;6.736;2024-01-11T06:41:02;54.15;;;20.85;;
37535;SDS011;23379;51.554;6.736;2024-01-11T06:43:27;63.95;;;25.02;;
37535;SDS011;23379;51.554;6.736;2024-01-11T06:45:53;74.55;;;27.55;;
37535;SDS011;23379;51.554;6.736;2024-01-11T06:48:19;71.05;;;28.73;;
37535;SDS011;23379;51.554;6.736;2024-01-11T06:50:44;54.65;;;22.58;;
37535;SDS011;23379;51.554;6.736;2024-01-11T06:53:10;47.40;;;21.42;;
37535;SDS011;23379;51.554;6.736;2024-01-11T06:55:35;47.97;;;19.92;;
37535;SDS011;23379;51.554;6.736;2024-01-11T06:58:01;46.67;;;20.27;;
37535;SDS011;23379;51.554;6.736;2024-01-11T07:00:27;50.65;;;21.17;;
37535;SDS011;23379;51.554;6.736;2024-01-11T07:02:53;59.55;;;22.75;;
37535;SDS011;23379;51.554;6.736;2024-01-11T07:05:18;42.42;;;18.17;;
37535;SDS011;23379;51.554;6.736;2024-01-11T07:07:44;49.13;;;21.20;;
37535;SDS011;23379;51.554;6.736;2024-01-11T07:10:09;51.28;;;20.95;;
37535;SDS011;23379;51.554;6.736;2024-01-11T07:12:35;50.25;;;19.42;;
37535;SDS011;23379;51.554;6.736;2024-01-11T07:15:02;54.72;;;21.02;;
37535;SDS011;23379;51.554;6.736;2024-01-11T07:17:29;46.38;;;19.70;;
37535;SDS011;23379;51.554;6.736;2024-01-11T07:19:55;41.78;;;18.55;;
37535;SDS011;23379;51.554;6.736;2024-01-11T07:22:20;47.85;;;20.38;;
37535;SDS011;23379;51.554;6.736;2024-01-11T07:24:45;53.58;;;18.67;;
37535;SDS011;23379;51.554;6.736;2024-01-11T07:27:11;51.38;;;19.42;;
37535;SDS011;23379;51.554;6.736;2024-01-11T07:29:36;48.03;;;20.42;;
37535;SDS011;23379;51.554;6.736;2024-01-11T07:32:02;49.97;;;19.05;;
37535;SDS011;23379;51.554;6.736;2024-01-11T07:34:28;46.15;;;19.58;;
37535;SDS011;23379;51.554;6.736;2024-01-11T07:36:54;54.72;;;19.70;;
37535;SDS011;23379;51.554;6.736;2024-01-11T07:39:20;58.55;;;21.65;;
37535;SDS011;23379;51.554;6.736;2024-01-11T07:41:47;52.53;;;20.63;;
37535;SDS011;23379;51.554;6.736;2024-01-11T07:44:12;68.00;;;21.15;;
37535;SDS011;23379;51.554;6.736;2024-01-11T07:46:38;46.13;;;19.00;;
37535;SDS011;23379;51.554;6.736;2024-01-11T07:49:03;50.47;;;19.92;;
37535;SDS011;23379;51.554;6.736;2024-01-11T07:51:29;45.95;;;19.63;;
37535;SDS011;23379;51.554;6.736;2024-01-11T07:53:55;48.05;;;19.90;;
37535;SDS011;23379;51.554;6.736;2024-01-11T07:56:20;54.03;;;20.20;;
37535;SDS011;23379;51.554;6.736;2024-01-11T07:58:46;41.67;;;19.30;;
37535;SDS011;23379;51.554;6.736;2024-01-11T08:01:11;47.72;;;19.75;;
37535;SDS011;23379;51.554;6.736;2024-01-11T08:03:37;52.92;;;19.42;;
37535;SDS011;23379;51.554;6.736;2024-01-11T08:06:03;47.22;;;18.70;;
37535;SDS011;23379;51.554;6.736;2024-01-11T08:08:28;46.00;;;18.55;;
37535;SDS011;23379;51.554;6.736;2024-01-11T08:10:54;51.90;;;21.00;;
37535;SDS011;23379;51.554;6.736;2024-01-11T08:13:19;54.90;;;21.77;;
37535;SDS011;23379;51.554;6.736;2024-01-11T08:15:46;43.70;;;19.17;;
37535;SDS011;23379;51.554;6.736;2024-01-11T08:18:12;47.90;;;20.02;;
37535;SDS011;23379;51.554;6.736;2024-01-11T08:20:38;43.90;;;20.25;;
37535;SDS011;23379;51.554;6.736;2024-01-11T08:23:04;48.78;;;20.65;;
37535;SDS011;23379;51.554;6.736;2024-01-11T08:25:30;45.65;;;19.48;;
37535;SDS011;23379;51.554;6.736;2024-01-11T08:27:55;37.75;;;18.38;;
37535;SDS011;23379;51.554;6.736;2024-01-11T08:30:20;39.70;;;19.45;;
37535;SDS011;23379;51.554;6.736;2024-01-11T08:32:46;50.63;;;19.80;;
37535;SDS011;23379;51.554;6.736;2024-01-11T08:35:12;39.15;;;20.23;;
37535;SDS011;23379;51.554;6.736;2024-01-11T08:37:37;46.25;;;20.85;;
37535;SDS011;23379;51.554;6.736;2024-01-11T08:40:04;40.10;;;19.65;;
37535;SDS011;23379;51.554;6.736;2024-01-11T08:42:31;42.58;;;20.48;;
37535;SDS011;23379;51.554;6.736;2024-01-11T08:44:56;55.58;;;24.88;;
37535;SDS011;23379;51.554;6.736;2024-01-11T08:47:22;131.02;;;50.90;;
37535;SDS011;23379;51.554;6.736;2024-01-11T08:49:47;123.22;;;51.10;;
37535;SDS011;23379;51.554;6.736;2024-01-11T08:52:12;145.27;;;57.58;;
37535;SDS011;23379;51.554;6.736;2024-01-11T08:54:38;77.32;;;31.73;;
37535;SDS011;23379;51.554;6.736;2024-01-11T08:57:03;72.35;;;27.98;;
37535;SDS011;23379;51.554;6.736;2024-01-11T08:59:29;60.83;;;24.15;;
37535;SDS011;23379;51.554;6.736;2024-01-11T09:01:55;49.58;;;21.13;;
37535;SDS011;23379;51.554;6.736;2024-01-11T09:04:20;60.40;;;25.25;;
37535;SDS011;23379;51.554;6.736;2024-01-11T09:06:45;60.00;;;22.92;;
37535;SDS011;23379;51.554;6.736;2024-01-11T09:09:11;50.25;;;21.58;;
37535;SDS011;23379;51.554;6.736;2024-01-11T09:11:38;61.63;;;25.05;;
37535;SDS011;23379;51.554;6.736;2024-01-11T09:14:06;53.55;;;21.95;;
37535;SDS011;23379;51.554;6.736;2024-01-11T09:16:31;51.75;;;21.00;;
37535;SDS011;23379;51.554;6.736;2024-01-11T09:18:57;81.63;;;32.30;;
37535;SDS011;23379;51.554;6.736;2024-01-11T09:21:25;58.75;;;26.70;;
37535;SDS011;23379;51.554;6.736;2024-01-11T09:23:53;60.03;;;27.88;;
37535;SDS011;23379;51.554;6.736;2024-01-11T09:26:18;56.90;;;23.35;;
37535;SDS011;23379;51.554;6.736;2024-01-11T09:28:44;53.50;;;23.15;;
37535;SDS011;23379;51.554;6.736;2024-01-11T09:31:10;46.80;;;21.55;;
37535;SDS011;23379;51.554;6.736;2024-01-11T09:33:36;48.72;;;24.42;;
37535;SDS011;23379;51.554;6.736;2024-01-11T09:36:01;49.65;;;23.38;;
37535;SDS011;23379;51.554;6.736;2024-01-11T09:38:27;48.78;;;21.08;;
37535;SDS011;23379;51.554;6.736;2024-01-11T09:43:34;42.42;;;21.15;;
37535;SDS011;23379;51.554;6.736;2024-01-11T09:46:03;44.40;;;20.35;;
37535;SDS011;23379;51.554;6.736;2024-01-11T09:48:32;44.90;;;21.40;;
37535;SDS011;23379;51.554;6.736;2024-01-11T09:50:59;46.60;;;21.17;;
37535;SDS011;23379;51.554;6.736;2024-01-11T09:53:26;46.92;;;21.45;;
37535;SDS011;23379;51.554;6.736;2024-01-11T09:55:53;42.63;;;21.13;;
37535;SDS011;23379;51.554;6.736;2024-01-11T09:58:20;42.78;;;21.17;;
37535;SDS011;23379;51.554;6.736;2024-01-11T10:00:46;41.78;;;20.80;;
37535;SDS011;23379;51.554;6.736;2024-01-11T10:03:17;42.83;;;21.50;;
37535;SDS011;23379;51.554;6.736;2024-01-11T10:05:42;43.72;;;21.42;;
37535;SDS011;23379;51.554;6.736;2024-01-11T10:08:09;47.03;;;20.38;;
37535;SDS011;23379;51.554;6.736;2024-01-11T10:10:35;42.22;;;19.45;;
37535;SDS011;23379;51.554;6.736;2024-01-11T10:13:00;37.50;;;19.35;;
37535;SDS011;23379;51.554;6.736;2024-01-11T10:15:25;40.03;;;19.52;;
37535;SDS011;23379;51.554;6.736;2024-01-11T10:17:51;40.88;;;21.02;;
37535;SDS011;23379;51.554;6.736;2024-01-11T10:20:16;39.22;;;20.98;;
37535;SDS011;23379;51.554;6.736;2024-01-11T10:22:42;45.22;;;22.35;;
37535;SDS011;23379;51.554;6.736;2024-01-11T10:27:36;44.72;;;21.52;;
37535;SDS011;23379;51.554;6.736;2024-01-11T10:30:02;43.50;;;23.15;;
37535;SDS011;23379;51.554;6.736;2024-01-11T10:32:30;54.22;;;24.33;;
37535;SDS011;23379;51.554;6.736;2024-01-11T10:34:59;45.50;;;21.48;;
37535;SDS011;23379;51.554;6.736;2024-01-11T10:37:26;43.63;;;20.90;;
37535;SDS011;23379;51.554;6.736;2024-01-11T10:39:52;45.88;;;22.08;;
37535;SDS011;23379;51.554;6.736;2024-01-11T10:42:22;39.58;;;21.20;;
37535;SDS011;23379;51.554;6.736;2024-01-11T10:44:49;38.30;;;19.08;;
37535;SDS011;23379;51.554;6.736;2024-01-11T10:47:21;37.30;;;19.65;;
37535;SDS011;23379;51.554;6.736;2024-01-11T10:49:47;39.80;;;20.23;;
37535;SDS011;23379;51.554;6.736;2024-01-11T10:52:17;44.00;;;22.58;;
37535;SDS011;23379;51.554;6.736;2024-01-11T10:54:47;40.08;;;20.05;;
37535;SDS011;23379;51.554;6.736;2024-01-11T10:57:14;46.33;;;20.83;;
37535;SDS011;23379;51.554;6.736;2024-01-11T10:59:40;35.53;;;20.40;;
37535;SDS011;23379;51.554;6.736;2024-01-11T11:02:08;38.40;;;19.95;;
37535;SDS011;23379;51.554;6.736;2024-01-11T11:04:38;40.20;;;20.85;;
37535;SDS011;23379;51.554;6.736;2024-01-11T11:07:05;34.78;;;19.75;;
37535;SDS011;23379;51.554;6.736;2024-01-11T11:09:34;41.22;;;21.35;;
37535;SDS011;23379;51.554;6.736;2024-01-11T11:12:00;38.72;;;18.90;;
37535;SDS011;23379;51.554;6.736;2024-01-11T11:14:27;35.58;;;18.75;;
37535;SDS011;23379;51.554;6.736;2024-01-11T11:16:54;36.17;;;18.63;;
37535;SDS011;23379;51.554;6.736;2024-01-11T11:19:20;37.25;;;18.20;;
37535;SDS011;23379;51.554;6.736;2024-01-11T11:21:46;36.20;;;18.85;;
37535;SDS011;23379;51.554;6.736;2024-01-11T11:24:13;36.88;;;19.65;;
37535;SDS011;23379;51.554;6.736;2024-01-11T11:26:39;37.42;;;19.02;;
37535;SDS011;23379;51.554;6.736;2024-01-11T11:29:05;32.60;;;17.48;;
37535;SDS011;23379;51.554;6.736;2024-01-11T11:31:37;31.80;;;16.48;;
37535;SDS011;23379;51.554;6.736;2024-01-11T11:34:06;31.88;;;17.35;;
37535;SDS011;23379;51.554;6.736;2024-01-11T11:36:32;34.05;;;16.65;;
37535;SDS011;23379;51.554;6.736;2024-01-11T11:38:59;33.53;;;18.40;;
37535;SDS011;23379;51.554;6.736;2024-01-11T11:41:26;33.03;;;17.15;;
37535;SDS011;23379;51.554;6.736;2024-01-11T11:43:52;35.35;;;16.83;;
37535;SDS011;23379;51.554;6.736;2024-01-11T11:46:18;32.90;;;16.90;;
37535;SDS011;23379;51.554;6.736;2024-01-11T11:48:47;33.13;;;17.45;;
37535;SDS011;23379;51.554;6.736;2024-01-11T11:51:16;32.28;;;16.25;;
37535;SDS011;23379;51.554;6.736;2024-01-11T11:53:46;33.08;;;16.17;;
37535;SDS011;23379;51.554;6.736;2024-01-11T11:56:18;33.85;;;17.33;;
37535;SDS011;23379;51.554;6.736;2024-01-11T11:58:45;31.20;;;16.13;;
37535;SDS011;23379;51.554;6.736;2024-01-11T12:01:11;30.50;;;16.13;;
37535;SDS011;23379;51.554;6.736;2024-01-11T12:03:43;29.35;;;15.38;;
37535;SDS011;23379;51.554;6.736;2024-01-11T12:06:14;30.85;;;15.55;;
37535;SDS011;23379;51.554;6.736;2024-01-11T12:08:41;27.67;;;15.68;;
37535;SDS011;23379;51.554;6.736;2024-01-11T12:11:08;27.20;;;15.20;;
37535;SDS011;23379;51.554;6.736;2024-01-11T12:13:33;30.13;;;15.82;;
37535;SDS011;23379;51.554;6.736;2024-01-11T12:16:00;28.85;;;15.45;;
37535;SDS011;23379;51.554;6.736;2024-01-11T12:18:25;28.52;;;14.25;;
37535;SDS011;23379;51.554;6.736;2024-01-11T12:20:51;37.92;;;17.83;;
37535;SDS011;23379;51.554;6.736;2024-01-11T12:23:19;25.13;;;14.90;;
37535;SDS011;23379;51.554;6.736;2024-01-11T12:25:44;32.42;;;17.48;;
37535;SDS011;23379;51.554;6.736;2024-01-11T12:28:10;30.92;;;15.88;;
37535;SDS011;23379;51.554;6.736;2024-01-11T12:30:36;26.10;;;14.35;;
37535;SDS011;23379;51.554;6.736;2024-01-11T12:33:01;30.23;;;16.42;;
37535;SDS011;23379;51.554;6.736;2024-01-11T12:35:27;43.65;;;18.08;;
37535;SDS011;23379;51.554;6.736;2024-01-11T12:40:25;27.98;;;14.57;;
37535;SDS011;23379;51.554;6.736;2024-01-11T12:42:52;27.50;;;14.88;;
37535;SDS011;23379;51.554;6.736;2024-01-11T12:45:18;25.55;;;13.93;;
37535;SDS011;23379;51.554;6.736;2024-01-11T12:47:44;26.98;;;14.88;;
37535;SDS011;23379;51.554;6.736;2024-01-11T12:50:11;30.80;;;15.85;;
37535;SDS011;23379;51.554;6.736;2024-01-11T12:52:37;29.52;;;16.38;;
37535;SDS011;23379;51.554;6.736;2024-01-11T12:55:03;26.65;;;15.20;;
37535;SDS011;23379;51.554;6.736;2024-01-11T12:57:29;28.60;;;14.77;;
37535;SDS011;23379;51.554;6.736;2024-01-11T12:59:55;31.23;;;15.60;;
37535;SDS011;23379;51.554;6.736;2024-01-11T13:02:35;28.75;;;15.73;;
37535;SDS011;23379;51.554;6.736;2024-01-11T13:05:01;31.30;;;15.90;;
37535;SDS011;23379;51.554;6.736;2024-01-11T13:07:27;33.40;;;15.95;;
37535;SDS011;23379;51.554;6.736;2024-01-11T13:09:53;26.30;;;14.50;;
37535;SDS011;23379;51.554;6.736;2024-01-11T13:12:18;28.65;;;14.93;;
37535;SDS011;23379;51.554;6.736;2024-01-11T13:14:45;26.00;;;14.45;;
37535;SDS011;23379;51.554;6.736;2024-01-11T13:17:12;26.33;;;14.13;;
37535;SDS011;23379;51.554;6.736;2024-01-11T13:19:37;26.73;;;14.50;;
37535;SDS011;23379;51.554;6.736;2024-01-11T13:22:03;25.42;;;14.02;;
37535;SDS011;23379;51.554;6.736;2024-01-11T13:24:28;22.80;;;13.25;;
37535;SDS011;23379;51.554;6.736;2024-01-11T13:26:54;25.45;;;13.35;;
37535;SDS011;23379;51.554;6.736;2024-01-11T13:29:20;25.60;;;14.48;;
37535;SDS011;23379;51.554;6.736;2024-01-11T13:31:45;28.30;;;14.57;;
37535;SDS011;23379;51.554;6.736;2024-01-11T13:34:11;24.55;;;13.50;;
37535;SDS011;23379;51.554;6.736;2024-01-11T13:36:36;27.08;;;13.07;;
37535;SDS011;23379;51.554;6.736;2024-01-11T13:39:01;23.05;;;13.02;;
37535;SDS011;23379;51.554;6.736;2024-01-11T13:41:27;25.48;;;13.40;;
37535;SDS011;23379;51.554;6.736;2024-01-11T13:43:53;21.98;;;12.82;;
37535;SDS011;23379;51.554;6.736;2024-01-11T13:46:19;26.45;;;13.75;;
37535;SDS011;23379;51.554;6.736;2024-01-11T13:48:45;25.63;;;14.43;;
37535;SDS011;23379;51.554;6.736;2024-01-11T13:51:11;23.52;;;14.57;;
37535;SDS011;23379;51.554;6.736;2024-01-11T13:53:38;27.80;;;14.30;;
37535;SDS011;23379;51.554;6.736;2024-01-11T13:56:03;25.92;;;13.27;;
37535;SDS011;23379;51.554;6.736;2024-01-11T13:58:29;25.48;;;13.45;;
37535;SDS011;23379;51.554;6.736;2024-01-11T14:00:54;24.35;;;12.93;;
37535;SDS011;23379;51.554;6.736;2024-01-11T14:03:20;28.60;;;12.90;;
37535;SDS011;23379;51.554;6.736;2024-01-11T14:05:45;25.25;;;13.43;;
37535;SDS011;23379;51.554;6.736;2024-01-11T14:08:11;24.45;;;12.88;;
37535;SDS011;23379;51.554;6.736;2024-01-11T14:10:36;23.58;;;13.73;;
37535;SDS011;23379;51.554;6.736;2024-01-11T14:13:02;21.70;;;12.50;;
37535;SDS011;23379;51.554;6.736;2024-01-11T14:15:28;24.70;;;12.98;;
37535;SDS011;23379;51.554;6.736;2024-01-11T14:17:53;23.98;;;12.88;;
37535;SDS011;23379;51.554;6.736;2024-01-11T14:20:19;25.25;;;13.80;;
37535;SDS011;23379;51.554;6.736;2024-01-11T14:22:46;60.35;;;23.15;;